Impacts METAR Board
IDs:

KTUL - Tulsa Intl Arpt, OK, US

Updated at: 0100 UTC 05 Jul 2022
Potential Impact None Slight Moderate High
Time 04/13Z 04/14Z 04/15Z 04/16Z 04/17Z 04/18Z 04/19Z 04/20Z 04/21Z 04/22Z 04/23Z 05/00Z 05/01Z
Temp84 87 90 92 95 97 99 100 100 100 99 98 96
Dewpt74 73 72 72 69 70 69 67 68 66 66 63 65
Altim29.99 30.00 29.99 29.99 29.99 29.99 29.97 29.94 29.93 29.92 29.92 29.90 29.90
VIS10 10 10 10 10 10 10 10 10 10 10 10 10
CIG-- -- -- -- -- -- -- -- -- -- -- -- --
CoverFEWFEWFEWFEWCLRCLRSCTSCTSCTFEWFEWFEWCLR
FltCatVFRVFRVFRVFRVFRVFRVFRVFRVFRVFRVFRVFRVFR
WX--------------------------
WDir170170180190200200200170220210190190190
WSpd12 14 13 12 11 13 14 14 11 11 13 15 11
WGst-- -- -- -- 18 20 21 22 22 20 20 22 --
R08/26
XWnd -12 -14 -13 -12 -10 -12 -13 -14 -8 -9 -13 -15 -11
XGst -- -- -- -- -17 -19 -20 -22 -17 -17 -20 -22 --
HWnd 2 2 -0 -2 -4 -5 -5 2 -7 -6 -2 -3 -2
HGst -- -- -- -- -6 -7 -8 3 -14 -10 -4 -4 --
R18/36
XWnd 3 3 1 -1 -3 -4 -4 3 -7 -5 -2 -2 -1
XGst -- -- -- -- -5 -6 -6 5 -13 -9 -2 -3 --
HWnd 12 14 13 12 11 12 13 14 9 10 13 15 11
HGst -- -- -- -- 17 19 20 21 18 18 20 22 --
Raw hourly METARs
KTUL 041253Z 17012KT 10SM FEW250 29/23 A2999 RMK AO2 SLP146 T02890233
KTUL 041353Z 17014KT 10SM FEW250 31/23 A3000 RMK AO2 SLP149 T03060228
KTUL 041453Z 18013KT 10SM FEW250 32/22 A2999 RMK AO2 SLP147 T03220222 50005
KTUL 041553Z 19012KT 10SM FEW250 33/22 A2999 RMK AO2 SLP144 T03330222
KTUL 041653Z 20011G18KT 10SM CLR 35/21 A2999 RMK AO2 SLP145 T03500206
KTUL 041753Z 20013G20KT 10SM CLR 36/21 A2999 RMK AO2 SLP143 T03610211 10361 20267 57003
KTUL 041853Z 20014G21KT 10SM SCT080 37/21 A2997 RMK AO2 SLP137 T03720206
KTUL 041953Z 17014G22KT 10SM FEW050 SCT065 38/19 A2994 RMK AO2 SLP128 T03780194
KTUL 042053Z 22011G22KT 10SM SCT070 38/20 A2993 RMK AO2 SLP125 T03780200 56017
KTUL 042153Z 21011G20KT 10SM FEW070 38/19 A2992 RMK AO2 SLP121 T03780189
KTUL 042253Z 19013G20KT 10SM FEW075 37/19 A2992 RMK AO2 SLP119 T03720189
KTUL 042353Z 19015G22KT 10SM FEW070 37/17 A2990 RMK AO2 PK WND 19026/2318 SLP115 T03670172 10383 20361 58011
KTUL 050053Z 19011KT 10SM CLR 36/18 A2990 RMK AO2 SLP113 T03560183



Page loaded:  01:19 UTC  |   06:19 PM Pacific  |   07:19 PM Mountain  |   08:19 PM Central  |   09:19 PM Eastern

 

ADVISORIES

FORECASTS

FORECASTS

OBSERVATIONS

USER TOOLS

ABOUT US